Gabriella — OJHP — position and weather

sailwx.info

Track history (hours):
 
Tides and Currents Weather Stations Pressure Air Temp Water Temp Dewpoint Dewpoint Depression Visibility Wind Speed Wind Dir Waves Ship Positions

Gabriella

Last reported at 2015-May-24 10:20 UTC. Time now 2015-May-24 13:20 UTC.
Position N 59°19' E 018°06'.

Length 172 m; draft 6.5 m.

Type: Passenger vessel. MMSI: 230361000.

Date/timePositionNaut miles runAvg speedWind from/ knotsBaromVisibWave heightAir tempDewpointWater temp
2015-May-24 10:20N 59°19' E 018°06'2 0.9
2015-May-24 07:31N 59°20' E 018°11'9110.0
2015-May-23 22:25N 59°38' E 021°06'1618.5
2015-May-23 21:33N 59°33' E 021°36'1313.1
2015-May-23 20:33N 59°33' E 022°02'3517.5
2015-May-23 18:33N 59°40' E 023°10'1717.4
2015-May-23 17:32N 59°44' E 023°43'1817.4
2015-May-23 16:31N 59°49' E 024°17'9 0.8
2015-May-23 04:33N 59°50' E 023°59'1817.8
2015-May-23 03:33N 59°42' E 023°27'4418.5
2015-May-23 01:11N 59°33' E 022°03'1118.3
2015-May-23 00:33N 59°33' E 021°40'9910.9
2015-May-22 15:29N 59°22' E 018°27'1010.7
2015-May-22 14:33N 59°19' E 018°08'1 0.9
2015-May-22 13:31N 59°19' E 018°06'0 0.0
2015-May-22 12:31N 59°19' E 018°06'0 0.0
2015-May-22 11:31N 59°19' E 018°06'0 0.0
2015-May-22 10:31N 59°19' E 018°06'0 0.0
2015-May-22 09:31N 59°19' E 018°06'0 0.0
2015-May-22 08:31N 59°19' E 018°06'2 2.4
2015-May-22 07:30N 59°20' E 018°11'90 9.8
2015-May-21 22:19N 59°38' E 021°03'1317.3
2015-May-21 21:34N 59°34' E 021°29'1717.0
2015-May-21 20:34N 59°33' E 022°02'3817.3
2015-May-21 18:23N 59°41' E 023°15'1417.3
2015-May-21 17:33N 59°44' E 023°43'1917.3
2015-May-21 16:28N 59°50' E 024°19'2117.2
2015-May-21 15:14N 60°00' E 024°55'16 1.6
2015-May-21 05:30N 59°52' E 024°29'1718.0
2015-May-21 04:34N 59°46' E 023°57'1818.1
2015-May-21 03:33N 59°42' E 023°22'4018.2
2015-May-21 01:22N 59°33' E 022°05'1518.0
2015-May-21 00:33N 59°33' E 021°36'9710.8
2015-May-20 15:32N 59°22' E 018°27'1010.6
2015-May-20 14:33N 59°19' E 018°07'1 0.6
2015-May-20 13:33N 59°19' E 018°06'0 0.0
2015-May-20 12:33N 59°19' E 018°06'0 0.0
2015-May-20 11:33N 59°19' E 018°06'0 0.0
2015-May-20 10:33N 59°19' E 018°06'0 0.0
2015-May-20 09:33N 59°19' E 018°06'0 0.0
2015-May-20 08:33N 59°19' E 018°06'3 2.7
2015-May-20 07:28N 59°20' E 018°11'89 9.7
2015-May-19 22:20N 59°38' E 021°03'1417.5
2015-May-19 21:34N 59°34' E 021°29'1717.1
2015-May-19 20:33N 59°33' E 022°02'4017.4
2015-May-19 18:15N 59°41' E 023°20'1217.3
2015-May-19 17:33N 59°44' E 023°43'1817.3
2015-May-19 16:30N 59°50' E 024°17'6 0.6
2015-May-19 05:29N 59°52' E 024°29'1718.1
2015-May-19 04:32N 59°46' E 023°57'1818.2
2015-May-19 03:33N 59°42' E 023°22'2018.1
2015-May-19 02:26N 59°38' E 022°43'1618.1
2015-May-19 01:31N 59°34' E 022°11'1717.9
2015-May-19 00:33N 59°32' E 021°37'1818.2
2015-May-18 23:32N 59°36' E 021°01'8410.1
2015-May-18 15:11N 59°22' E 018°18'710.9
2015-May-18 14:34N 59°19' E 018°06'0 0.1
2015-May-18 13:33N 59°19' E 018°06'0 0.0
2015-May-18 12:33N 59°19' E 018°06'0 0.0
2015-May-18 11:33N 59°19' E 018°06'0 0.0
2015-May-18 10:33N 59°19' E 018°06'0 0.0
2015-May-18 09:33N 59°19' E 018°06'0 0.0
2015-May-18 08:33N 59°19' E 018°06'3 2.7
2015-May-18 07:29N 59°20' E 018°11'89 9.7
2015-May-17 22:20N 59°37' E 021°04'1417.4
2015-May-17 21:34N 59°34' E 021°29'5617.2
2015-May-17 18:17N 59°40' E 023°20'1317.4
2015-May-17 17:33N 59°44' E 023°44'1817.4
2015-May-17 16:33N 59°49' E 024°17'20 1.9
2015-May-17 06:13N 59°59' E 024°52'1218.5
2015-May-17 05:33N 59°52' E 024°31'1818.4
2015-May-17 04:33N 59°46' E 023°57'1818.4
2015-May-17 03:34N 59°42' E 023°22'3818.3
2015-May-17 01:29N 59°33' E 022°08'1718.1
2015-May-17 00:34N 59°33' E 021°35'10610.6
2015-May-16 14:33N 59°19' E 018°08'1 1.0
2015-May-16 13:32N 59°19' E 018°06'0 0.0
2015-May-16 12:29N 59°19' E 018°06'0 0.0
2015-May-16 11:32N 59°19' E 018°06'0 0.0
2015-May-16 10:32N 59°19' E 018°06'0 0.0
2015-May-16 09:32N 59°19' E 018°06'0 0.0
2015-May-16 08:32N 59°19' E 018°06'3 2.7
2015-May-16 07:28N 59°20' E 018°11'10110.2
2015-May-15 21:33N 59°34' E 021°29'5417.1
2015-May-15 18:25N 59°39' E 023°14'1517.3
2015-May-15 17:33N 59°44' E 023°42'1917.3
2015-May-15 16:26N 59°49' E 024°20'5 0.5
2015-May-15 05:28N 59°52' E 024°29'1718.1
2015-May-15 04:33N 59°46' E 023°57'1818.2
2015-May-15 03:33N 59°42' E 023°22'3918.2
2015-May-15 01:24N 59°33' E 022°06'1517.9
2015-May-15 00:33N 59°33' E 021°36'10210.9
2015-May-14 15:10N 59°22' E 018°16'6 9.8
2015-May-14 14:34N 59°19' E 018°06'0 0.0
2015-May-14 12:14N 59°19' E 018°06'  
Track history (hours):
 
Tides and Currents Weather Stations Pressure Air Temp Water Temp Dewpoint Dewpoint Depression Visibility Wind Speed Wind Dir Waves Ship Positions

Gabriella

Last reported at 2015-May-24 10:20 UTC. Time now 2015-May-24 13:20 UTC.
Position N 59°19' E 018°06'.

Length 172 m; draft 6.5 m.

Type: Passenger vessel. MMSI: 230361000.

Date/timePositionNaut miles runAvg speedWind from/ knotsBaromVisibWave heightAir tempDewpointWater temp
2015-May-24 10:20N 59°19' E 018°06'2 0.9
2015-May-24 07:31N 59°20' E 018°11'9110.0
2015-May-23 22:25N 59°38' E 021°06'1618.5
2015-May-23 21:33N 59°33' E 021°36'1313.1
2015-May-23 20:33N 59°33' E 022°02'3517.5
2015-May-23 18:33N 59°40' E 023°10'1717.4
2015-May-23 17:32N 59°44' E 023°43'1817.4
2015-May-23 16:31N 59°49' E 024°17'9 0.8
2015-May-23 04:33N 59°50' E 023°59'1817.8
2015-May-23 03:33N 59°42' E 023°27'4418.5
2015-May-23 01:11N 59°33' E 022°03'1118.3
2015-May-23 00:33N 59°33' E 021°40'9910.9
2015-May-22 15:29N 59°22' E 018°27'1010.7
2015-May-22 14:33N 59°19' E 018°08'1 0.9
2015-May-22 13:31N 59°19' E 018°06'0 0.0
2015-May-22 12:31N 59°19' E 018°06'0 0.0
2015-May-22 11:31N 59°19' E 018°06'0 0.0
2015-May-22 10:31N 59°19' E 018°06'0 0.0
2015-May-22 09:31N 59°19' E 018°06'0 0.0
2015-May-22 08:31N 59°19' E 018°06'2 2.4
2015-May-22 07:30N 59°20' E 018°11'90 9.8
2015-May-21 22:19N 59°38' E 021°03'1317.3
2015-May-21 21:34N 59°34' E 021°29'1717.0
2015-May-21 20:34N 59°33' E 022°02'3817.3
2015-May-21 18:23N 59°41' E 023°15'1417.3
2015-May-21 17:33N 59°44' E 023°43'1917.3
2015-May-21 16:28N 59°50' E 024°19'2117.2
2015-May-21 15:14N 60°00' E 024°55'16 1.6
2015-May-21 05:30N 59°52' E 024°29'1718.0
2015-May-21 04:34N 59°46' E 023°57'1818.1
2015-May-21 03:33N 59°42' E 023°22'4018.2
2015-May-21 01:22N 59°33' E 022°05'1518.0
2015-May-21 00:33N 59°33' E 021°36'9710.8
2015-May-20 15:32N 59°22' E 018°27'1010.6
2015-May-20 14:33N 59°19' E 018°07'1 0.6
2015-May-20 13:33N 59°19' E 018°06'0 0.0
2015-May-20 12:33N 59°19' E 018°06'0 0.0
2015-May-20 11:33N 59°19' E 018°06'0 0.0
2015-May-20 10:33N 59°19' E 018°06'0 0.0
2015-May-20 09:33N 59°19' E 018°06'0 0.0
2015-May-20 08:33N 59°19' E 018°06'3 2.7
2015-May-20 07:28N 59°20' E 018°11'89 9.7
2015-May-19 22:20N 59°38' E 021°03'1417.5
2015-May-19 21:34N 59°34' E 021°29'1717.1
2015-May-19 20:33N 59°33' E 022°02'4017.4
2015-May-19 18:15N 59°41' E 023°20'1217.3
2015-May-19 17:33N 59°44' E 023°43'1817.3
2015-May-19 16:30N 59°50' E 024°17'6 0.6
2015-May-19 05:29N 59°52' E 024°29'1718.1
2015-May-19 04:32N 59°46' E 023°57'1818.2
2015-May-19 03:33N 59°42' E 023°22'2018.1
2015-May-19 02:26N 59°38' E 022°43'1618.1
2015-May-19 01:31N 59°34' E 022°11'1717.9
2015-May-19 00:33N 59°32' E 021°37'1818.2
2015-May-18 23:32N 59°36' E 021°01'8410.1
2015-May-18 15:11N 59°22' E 018°18'710.9
2015-May-18 14:34N 59°19' E 018°06'0 0.1
2015-May-18 13:33N 59°19' E 018°06'0 0.0
2015-May-18 12:33N 59°19' E 018°06'0 0.0
2015-May-18 11:33N 59°19' E 018°06'0 0.0
2015-May-18 10:33N 59°19' E 018°06'0 0.0
2015-May-18 09:33N 59°19' E 018°06'0 0.0
2015-May-18 08:33N 59°19' E 018°06'3 2.7
2015-May-18 07:29N 59°20' E 018°11'89 9.7
2015-May-17 22:20N 59°37' E 021°04'1417.4
2015-May-17 21:34N 59°34' E 021°29'5617.2
2015-May-17 18:17N 59°40' E 023°20'1317.4
2015-May-17 17:33N 59°44' E 023°44'1817.4
2015-May-17 16:33N 59°49' E 024°17'20 1.9
2015-May-17 06:13N 59°59' E 024°52'1218.5
2015-May-17 05:33N 59°52' E 024°31'1818.4
2015-May-17 04:33N 59°46' E 023°57'1818.4
2015-May-17 03:34N 59°42' E 023°22'3818.3
2015-May-17 01:29N 59°33' E 022°08'1718.1
2015-May-17 00:34N 59°33' E 021°35'10610.6
2015-May-16 14:33N 59°19' E 018°08'1 1.0
2015-May-16 13:32N 59°19' E 018°06'0 0.0
2015-May-16 12:29N 59°19' E 018°06'0 0.0
2015-May-16 11:32N 59°19' E 018°06'0 0.0
2015-May-16 10:32N 59°19' E 018°06'0 0.0
2015-May-16 09:32N 59°19' E 018°06'0 0.0
2015-May-16 08:32N 59°19' E 018°06'3 2.7
2015-May-16 07:28N 59°20' E 018°11'10110.2
2015-May-15 21:33N 59°34' E 021°29'5417.1
2015-May-15 18:25N 59°39' E 023°14'1517.3
2015-May-15 17:33N 59°44' E 023°42'1917.3
2015-May-15 16:26N 59°49' E 024°20'5 0.5
2015-May-15 05:28N 59°52' E 024°29'1718.1
2015-May-15 04:33N 59°46' E 023°57'1818.2
2015-May-15 03:33N 59°42' E 023°22'3918.2
2015-May-15 01:24N 59°33' E 022°06'1517.9
2015-May-15 00:33N 59°33' E 021°36'10210.9
2015-May-14 15:10N 59°22' E 018°16'6 9.8
2015-May-14 14:34N 59°19' E 018°06'0 0.0
2015-May-14 12:14N 59°19' E 018°06'  

Dump ship's entire track history